^^
Meteo Knjazevac Station Historical Data
Daily Summary for December 26, 2021 Units:  Metric    English   Both
Daily Weekly Monthly Yearly Custom
  High: Low: Average:
Temperature: 11.5 °C 8.8 °C 10.3 °C
Dew Point: 6.9 °C 5.2 °C 5.9 °C
Humidity: 88% 65% 75%
Wind Speed: 14.5km/h 0km/h 7.2km/h
Wind Gust: 27.4km/h - -
Wind- - SE
Pressure: 1013.4 hPa 1012.1 hPa -
Precipitation: 1.27 mm    
Historical Graphs
 
 
Tabular Data for December 26, 2021
Time Temperature Dew Point Pressure Wind Wind Speed Wind Gust Humidity Rainfall Rate (Hourly) solar Conditions
00:00 11.5 °C 5.2 °C 1013.4 hPa SSE 4.8 km/h 14.5 km/h 65% 0 mm 0 W/m2
00:10 11.4 °C 5.5 °C 1013.4 hPa South 1.6 km/h 11.3 km/h 67% 0 mm 0 W/m2
00:20 11.4 °C 5.2 °C 1013.4 hPa SSE 8 km/h 19.3 km/h 66% 0 mm 0 W/m2
00:30 11.3 °C 5.4 °C 1013.1 hPa SE 9.7 km/h 16.1 km/h 67% 0 mm 0 W/m2
00:40 11.3 °C 5.2 °C 1013.1 hPa SE 9.7 km/h 19.3 km/h 66% 0 mm 0 W/m2
00:50 11.2 °C 5.3 °C 1013.1 hPa SE 9.7 km/h 16.1 km/h 67% 0 mm 0 W/m2
01:00 11.2 °C 5.3 °C 1013.1 hPa SE 8 km/h 12.9 km/h 67% 0 mm 0 W/m2
01:10 11.2 °C 5.3 °C 1013.1 hPa SE 11.3 km/h 22.5 km/h 67% 0 mm 0 W/m2
01:20 11.1 °C 5.2 °C 1013.1 hPa SE 4.8 km/h 17.7 km/h 67% 0 mm 0 W/m2
01:30 11.1 °C 5.2 °C 1013.1 hPa SE 4.8 km/h 12.9 km/h 67% 0 mm 0 W/m2
01:40 11 °C 5.3 °C 1013.1 hPa SSE 3.2 km/h 8 km/h 68% 0 mm 0 W/m2
01:50 11 °C 5.3 °C 1013.1 hPa SSE 4.8 km/h 11.3 km/h 68% 0 mm 0 W/m2
02:00 11.1 °C 5.2 °C 1013.1 hPa SE 4.8 km/h 16.1 km/h 67% 0 mm 0 W/m2
02:10 11.2 °C 5.3 °C 1013.1 hPa SE 9.7 km/h 17.7 km/h 67% 0 mm 0 W/m2
02:20 11.2 °C 5.3 °C 1012.8 hPa SE 9.7 km/h 16.1 km/h 67% 0 mm 0 W/m2
02:30 11.1 °C 5.2 °C 1012.8 hPa SE 8 km/h 19.3 km/h 67% 0 mm 0 W/m2
02:40 11.1 °C 5.2 °C 1012.4 hPa SE 8 km/h 14.5 km/h 67% 0 mm 0 W/m2
02:50 11 °C 5.3 °C 1012.4 hPa ESE 9.7 km/h 20.9 km/h 68% 0 mm 0 W/m2
03:00 10.9 °C 5.2 °C 1012.4 hPa ESE 11.3 km/h 20.9 km/h 68% 0 mm 0 W/m2
03:10 11 °C 5.3 °C 1012.4 hPa ESE 11.3 km/h 16.1 km/h 68% 0 mm 0 W/m2
03:20 11.1 °C 5.4 °C 1012.4 hPa ESE 9.7 km/h 19.3 km/h 68% 0 mm 0 W/m2
03:30 11.1 °C 5.2 °C 1012.1 hPa SE 11.3 km/h 25.7 km/h 67% 0 mm 0 W/m2
03:40 11.1 °C 5.3 °C 1012.1 hPa SE 12.9 km/h 25.7 km/h 68% 0 mm 0 W/m2
03:50 10.9 °C 5.4 °C 1012.1 hPa ESE 9.7 km/h 20.9 km/h 69% 0 mm 0 W/m2
04:00 10.9 °C 5.7 °C 1012.4 hPa ESE 11.3 km/h 19.3 km/h 70% 0 mm 0 W/m2
04:10 10.8 °C 5.9 °C 1012.4 hPa ESE 11.3 km/h 19.3 km/h 72% 0 mm 0 W/m2
04:20 10.7 °C 5.8 °C 1012.4 hPa ESE 11.3 km/h 22.5 km/h 72% 0 mm 0 W/m2
04:30 10.6 °C 5.9 °C 1012.1 hPa ESE 12.9 km/h 22.5 km/h 73% 0 mm 0 W/m2
04:40 10.5 °C 5.9 °C 1012.1 hPa ESE 11.3 km/h 27.4 km/h 73% 0 mm 0 W/m2
04:50 10.5 °C 5.9 °C 1012.1 hPa ESE 14.5 km/h 24.1 km/h 73% 0 mm 0 W/m2
05:00 10.5 °C 5.9 °C 1012.1 hPa SE 9.7 km/h 20.9 km/h 73% 0 mm 0 W/m2
05:10 10.3 °C 5.9 °C 1012.1 hPa ESE 11.3 km/h 20.9 km/h 74% 0 mm 0 W/m2
05:20 10.2 °C 6.2 °C 1012.1 hPa ESE 12.9 km/h 19.3 km/h 76% 0 mm 0 W/m2
05:30 10.1 °C 6.4 °C 1012.4 hPa SE 11.3 km/h 22.5 km/h 78% 0 mm 0 W/m2
05:40 10 °C 6.5 °C 1012.4 hPa ESE 11.3 km/h 20.9 km/h 79% 0 mm 0 W/m2
05:50 9.8 °C 6.3 °C 1012.8 hPa ESE 8 km/h 19.3 km/h 79% 0 mm 0 W/m2
06:00 9.8 °C 6.5 °C 1012.4 hPa SSE 4.8 km/h 14.5 km/h 80% 0 mm 0 W/m2
06:10 9.6 °C 6.5 °C 1012.8 hPa SW 1.6 km/h 8 km/h 81% 0 mm 0 W/m2
06:20 9.5 °C 6.4 °C 1012.8 hPa SW 3.2 km/h 9.7 km/h 81% 0 mm 0 W/m2
06:30 9.3 °C 6.6 °C 1012.8 hPa Calm   9.7 km/h 83% 0 mm 0 W/m2
06:40 9.3 °C 6.6 °C 1012.8 hPa SSE 3.2 km/h 11.3 km/h 83% 0.25 mm 0 W/m2
06:50 9.2 °C 6.6 °C 1012.8 hPa Calm   8 km/h 84% 0.25 mm 0 W/m2
07:00 9.1 °C 6.7 °C 1013.1 hPa SE 4.8 km/h 16.1 km/h 85% 0 mm 0 W/m2
07:10 9 °C 6.8 °C 1013.1 hPa Calm   6.4 km/h 86% 0 mm 0 W/m2
07:20 8.9 °C 6.7 °C 1013.1 hPa NW 3.2 km/h 8 km/h 86% 0 mm 1 W/m2
07:30 8.9 °C 6.7 °C 1013.1 hPa SE 1.6 km/h 9.7 km/h 86% 0 mm 2 W/m2
07:40 8.8 °C 6.9 °C 1013.1 hPa North 1.6 km/h 9.7 km/h 88% 0.25 mm 3 W/m2
07:50 8.8 °C 6.9 °C 1013.1 hPa East 9.7 km/h 14.5 km/h 88% 0 mm 5 W/m2
08:00 8.8 °C 6.9 °C 1013.1 hPa ESE 4.8 km/h 11.3 km/h 88% 0 mm 9 W/m2
08:10 8.8 °C 6.9 °C 1013.4 hPa NNE 1.6 km/h 9.7 km/h 88% 0 mm 11 W/m2
08:20 8.8 °C 6.9 °C 1013.4 hPa SSE 3.2 km/h 11.3 km/h 88% 0 mm 14 W/m2
08:30 8.8 °C 6.9 °C 1013.1 hPa South 4.8 km/h 11.3 km/h 88% 0 mm 17 W/m2
08:40 8.8 °C 6.9 °C 1013.1 hPa South 3.2 km/h 8 km/h 88% 0 mm 26 W/m2
Knjazevac, Serbia
Compliments of Weather Underground - 2 mb